»·PEaware :: N17MA KSNA-KCRQ

N17MA :: KSNA-KCRQ

FLIGHT INFORMATION

Flight Status: Arrived
Operator: Privately registered:
United States
More flights under this callsign
Pilot: Diego M. (28112)
Aircraft: CESSNA 172 SKYHAWK
(C172)
More flights by this aircraft type
Origin: KSNA John Wayne-Orange Co
United States
Destination: KCRQ McClellan-Palomar
United States
More flights between these airports :: More routes between these airports
Route: +V23 OCN
File this flight plan on PilotEdge
Remarks:
Altitude:
(Current/Filed)
5,000ft
Speed:
(Current/Filed)
120kts
Departed: 11-May-20 10:19 AM
Arrived: 11-May-20 11:00 AM
Distance/Time
Traveled:
44nm/0:41
Distance/Time
To Go:
Arrived

Flight Plot

Page will automatically refresh every two minutes.


Map Options




Map Legend


Flown Route
Filed Route
Departure Airport
Arrival Airport
Navaid (VOR, NDB)
Fix

Horizontal Profiles

Position Reports

Time Latitude Longitude Heading Altitude Ground
Speed
11-May-20 10:07 33.675398 -117.871423 207 60ft 0kts
11-May-20 10:08 33.675398 -117.871423 207 60ft 0kts
11-May-20 10:09 33.675398 -117.871423 207 60ft 0kts
11-May-20 10:10 33.675398 -117.871423 207 60ft 0kts
11-May-20 10:11 33.675398 -117.871423 207 60ft 0kts
11-May-20 10:12 33.675398 -117.871423 207 60ft 0kts
11-May-20 10:13 33.674936 -117.870795 51 60ft 1kts
11-May-20 10:14 33.677287 -117.869301 26 60ft 18kts
11-May-20 10:15 33.681217 -117.866940 60 60ft 14kts
11-May-20 10:16 33.681194 -117.866384 119 60ft 0kts
11-May-20 10:17 33.681189 -117.866373 119 60ft 0kts
11-May-20 10:18 33.677750 -117.867554 208 60ft 65kts
11-May-20 10:19 33.655317 -117.880004 187 725ft 95kts
11-May-20 10:20 33.629440 -117.882777 185 1782ft 95kts
11-May-20 10:21 33.602854 -117.884428 167 2747ft 98kts
11-May-20 10:22 33.591599 -117.856015 100 3638ft 99kts
11-May-20 10:23 33.582242 -117.824954 133 4466ft 104kts
11-May-20 10:24 33.560265 -117.799181 135 5004ft 129kts
11-May-20 10:25 33.533487 -117.767617 135 5000ft 134kts
11-May-20 10:26 33.507122 -117.736191 135 5000ft 135kts
11-May-20 10:27 33.480545 -117.704365 136 5000ft 135kts
11-May-20 10:28 33.453919 -117.672400 137 5000ft 135kts
11-May-20 10:29 33.427300 -117.640464 138 5001ft 135kts
11-May-20 10:30 33.400858 -117.608772 139 5001ft 134kts
11-May-20 10:31 33.374518 -117.577256 139 5000ft 134kts
11-May-20 10:32 33.347954 -117.545490 138 4999ft 135kts
11-May-20 10:33 33.321411 -117.513761 137 4998ft 135kts
11-May-20 10:34 33.294652 -117.481793 136 4997ft 135kts
11-May-20 10:35 33.267928 -117.449892 136 4996ft 135kts
11-May-20 10:36 33.241205 -117.418031 135 4994ft 135kts
11-May-20 10:37 33.225964 -117.388281 81 4995ft 99kts
11-May-20 10:38 33.228457 -117.351561 80 4993ft 116kts
11-May-20 10:39 33.230993 -117.316469 81 4991ft 118kts
11-May-20 10:40 33.233843 -117.277286 81 4990ft 118kts
11-May-20 10:41 33.236702 -117.238183 81 4991ft 119kts
11-May-20 10:42 33.239668 -117.198207 81 4991ft 121kts
11-May-20 10:43 33.242667 -117.158068 81 4991ft 121kts
11-May-20 10:44 33.245673 -117.117961 81 4991ft 121kts
11-May-20 10:45 33.248772 -117.077921 81 4992ft 120kts
11-May-20 10:46 33.252057 -117.038026 81 4994ft 120kts
11-May-20 10:47 33.251677 -116.999018 130 4991ft 122kts
11-May-20 10:48 33.219542 -116.994015 190 4996ft 120kts
11-May-20 10:49 33.188765 -117.003077 219 4531ft 111kts
11-May-20 10:50 33.167061 -117.028052 261 3805ft 107kts
11-May-20 10:51 33.163068 -117.061689 263 3597ft 110kts
11-May-20 10:52 33.157434 -117.098912 262 3422ft 118kts
11-May-20 10:53 33.151912 -117.133451 263 3262ft 91kts
11-May-20 10:54 33.146915 -117.164748 261 2339ft 94kts
11-May-20 10:55 33.142500 -117.191961 261 1800ft 79kts
11-May-20 10:56 33.138291 -117.218042 260 1327ft 80kts
11-May-20 10:57 33.134016 -117.244486 259 858ft 81kts
11-May-20 10:58 33.130203 -117.267913 260 418ft 63kts
11-May-20 10:59 33.128999 -117.280203 314 308ft 3kts
11-May-20 11:00 33.129049 -117.280257 352 308ft 0kts
11-May-20 11:01 33.129456 -117.279663 154 305ft 0kts
11-May-20 11:02 33.129324 -117.279632 168 307ft 0kts
11-May-20 11:03 33.129325 -117.279632 168 307ft 0kts

Navigation Log

Ident Type
Flight plan parsing failed, navigation log unavailable